createdAt,value
2023-01-17T00:01:54.443Z,2.95
2023-01-17T00:04:40.085Z,3.63
2023-01-17T00:07:29.133Z,2.97
2023-01-17T00:09:57.866Z,3.57
2023-01-17T00:12:29.955Z,2.88
2023-01-17T00:14:59.674Z,4.50
2023-01-17T00:17:29.985Z,3.35
2023-01-17T00:20:15.892Z,4.40
2023-01-17T00:23:02.518Z,3.95
2023-01-17T00:25:51.121Z,7.10
2023-01-17T00:28:19.973Z,3.42
2023-01-17T00:30:47.338Z,4.80
2023-01-17T00:33:14.468Z,4.72
2023-01-17T00:35:41.661Z,5.80
2023-01-17T00:38:10.225Z,4.80
2023-01-17T00:40:38.693Z,5.70
2023-01-17T00:43:25.395Z,6.57
2023-01-17T00:46:13.641Z,5.63
2023-01-17T00:49:00.239Z,6.22
2023-01-17T00:51:46.659Z,6.47
2023-01-17T00:54:33.066Z,4.90
2023-01-17T00:57:19.462Z,7.32
2023-01-17T01:00:05.424Z,14.57
2023-01-17T01:02:53.393Z,4.88
2023-01-17T01:05:39.678Z,3.33
2023-01-17T01:08:35.572Z,3.35
2023-01-17T01:11:24.718Z,4.20
2023-01-17T01:14:10.370Z,3.45
2023-01-17T01:16:56.209Z,4.03
2023-01-17T01:19:43.312Z,3.72
2023-01-17T01:22:28.990Z,4.97
2023-01-17T01:25:14.749Z,4.00
2023-01-17T01:28:00.324Z,3.70
2023-01-17T01:30:46.179Z,3.65
2023-01-17T01:33:21.145Z,3.47
2023-01-17T01:35:52.508Z,5.20
2023-01-17T01:38:22.715Z,5.10
2023-01-17T01:40:53.389Z,4.23
2023-01-17T01:43:40.168Z,3.25
2023-01-17T01:46:09.089Z,3.00
2023-01-17T01:48:41.285Z,3.20
2023-01-17T01:51:14.639Z,2.53
2023-01-17T01:53:47.909Z,2.63
2023-01-17T01:56:17.525Z,5.27
2023-01-17T01:58:49.947Z,2.88
2023-01-17T02:01:19.452Z,3.70
2023-01-17T02:03:48.791Z,5.63
2023-01-17T02:06:30.067Z,2.33
2023-01-17T02:09:01.167Z,4.83
2023-01-17T02:11:29.533Z,3.15
2023-01-17T02:13:57.797Z,5.50
2023-01-17T02:16:46.432Z,4.33
2023-01-17T02:19:40.859Z,4.00
2023-01-17T02:22:31.245Z,3.50
2023-01-17T02:25:24.717Z,1.88
2023-01-17T02:28:10.665Z,3.30
2023-01-17T02:30:42.051Z,3.83
2023-01-17T02:33:28.584Z,6.10
2023-01-17T02:36:06.642Z,2.60
2023-01-17T02:38:45.022Z,4.63
2023-01-17T02:41:18.778Z,2.10
2023-01-17T02:43:49.445Z,2.60
2023-01-17T02:46:19.328Z,2.10
2023-01-17T02:48:48.424Z,1.00
2023-01-17T02:51:47.825Z,0.80
2023-01-17T02:54:47.381Z,1.02
2023-01-17T02:57:43.853Z,2.08
2023-01-17T03:00:22.618Z,1.00
2023-01-17T03:03:03.200Z,0.70
2023-01-17T03:05:37.798Z,0.70
2023-01-17T03:08:07.564Z,1.60
2023-01-17T03:10:37.275Z,1.17
2023-01-17T03:13:05.694Z,1.30
2023-01-17T03:15:34.173Z,1.58
2023-01-17T03:18:08.290Z,1.33
2023-01-17T03:20:36.509Z,1.50
2023-01-17T03:23:04.934Z,1.80
2023-01-17T03:25:33.453Z,1.30
2023-01-17T03:28:01.830Z,3.00
2023-01-17T03:30:30.074Z,3.05
2023-01-17T03:32:58.408Z,3.72
2023-01-17T03:35:28.499Z,3.22
2023-01-17T03:37:57.075Z,4.05
2023-01-17T03:40:29.799Z,5.10
2023-01-17T03:42:57.983Z,5.68
2023-01-17T03:45:26.229Z,4.47
2023-01-17T03:47:56.812Z,3.40
2023-01-17T03:50:25.218Z,3.88
2023-01-17T03:52:54.781Z,5.72
2023-01-17T03:55:23.102Z,3.15
2023-01-17T03:57:51.311Z,5.53
2023-01-17T04:00:21.041Z,3.47
2023-01-17T04:02:49.524Z,2.50
2023-01-17T04:05:18.159Z,2.38
2023-01-17T04:07:46.585Z,0.90
2023-01-17T04:10:17.238Z,2.70
2023-01-17T04:12:46.016Z,1.10
2023-01-17T04:15:14.279Z,1.80
2023-01-17T04:17:43.359Z,2.20
2023-01-17T04:20:17.403Z,1.90
2023-01-17T04:22:45.751Z,2.90
2023-01-17T04:25:15.448Z,1.40
2023-01-17T04:27:43.734Z,1.70
2023-01-17T04:30:13.297Z,2.35
2023-01-17T04:32:41.523Z,1.90
2023-01-17T04:35:10.576Z,2.30
2023-01-17T04:37:39.138Z,2.22
2023-01-17T04:40:08.462Z,1.70
2023-01-17T04:42:38.153Z,3.22
2023-01-17T04:45:07.776Z,7.50
2023-01-17T04:47:36.116Z,4.82
2023-01-17T04:50:04.599Z,4.95
2023-01-17T04:52:32.864Z,7.45
2023-01-17T04:55:01.172Z,7.55
2023-01-17T04:57:29.405Z,5.15
2023-01-17T04:59:59.161Z,7.57
2023-01-17T05:02:27.573Z,4.30
2023-01-17T05:04:55.883Z,7.20
2023-01-17T05:07:24.117Z,6.50
2023-01-17T05:09:52.329Z,4.82
2023-01-17T05:12:20.541Z,4.95
2023-01-17T05:14:48.812Z,11.23
2023-01-17T05:17:18.263Z,10.00
2023-01-17T05:19:46.903Z,9.35
2023-01-17T05:22:15.986Z,10.43
2023-01-17T05:24:45.019Z,14.10
2023-01-17T05:27:14.789Z,8.65
2023-01-17T05:29:43.192Z,10.77
2023-01-17T05:32:11.535Z,7.55
2023-01-17T05:34:41.151Z,13.05
2023-01-17T05:37:09.564Z,9.50
2023-01-17T05:39:37.735Z,7.40
2023-01-17T05:42:06.198Z,7.80
2023-01-17T05:44:34.404Z,7.30
2023-01-17T05:47:02.614Z,5.55
2023-01-17T05:49:30.825Z,7.15
2023-01-17T05:52:00.383Z,5.45
2023-01-17T05:54:30.045Z,7.13
2023-01-17T05:56:58.312Z,5.15
2023-01-17T05:59:36.479Z,7.00
2023-01-17T06:02:06.345Z,6.07
2023-01-17T06:04:35.023Z,4.50
2023-01-17T06:07:05.419Z,5.32
2023-01-17T06:09:33.608Z,4.53
2023-01-17T06:12:02.973Z,6.50
2023-01-17T06:14:31.229Z,5.93
2023-01-17T06:16:59.477Z,6.25
2023-01-17T06:19:27.741Z,6.78
2023-01-17T06:21:56.089Z,6.35
2023-01-17T06:24:25.762Z,5.65
2023-01-17T06:26:54.070Z,5.50
2023-01-17T06:29:22.267Z,5.38
2023-01-17T06:31:50.623Z,7.63
2023-01-17T06:34:19.000Z,10.88
2023-01-17T06:36:47.343Z,5.47
2023-01-17T06:39:15.592Z,6.90
2023-01-17T06:41:45.208Z,6.50
2023-01-17T06:44:13.459Z,4.75
2023-01-17T06:46:41.918Z,5.25
2023-01-17T06:49:10.329Z,7.47
2023-01-17T06:51:38.591Z,4.80
2023-01-17T06:54:07.206Z,4.20
2023-01-17T06:56:35.554Z,4.70
2023-01-17T06:59:05.354Z,2.30
2023-01-17T07:01:33.884Z,3.63
2023-01-17T07:04:02.275Z,9.05
2023-01-17T07:06:30.485Z,9.80
2023-01-17T07:08:59.093Z,7.85
2023-01-17T07:11:27.696Z,4.63
2023-01-17T07:13:55.825Z,5.38
2023-01-17T07:16:25.692Z,7.10
2023-01-17T07:18:54.858Z,6.45
2023-01-17T07:21:23.187Z,8.45
2023-01-17T07:23:51.412Z,10.27
2023-01-17T07:26:19.735Z,9.77
2023-01-17T07:28:47.907Z,12.88
2023-01-17T07:31:16.155Z,11.30
2023-01-17T07:33:45.957Z,11.47
2023-01-17T07:36:14.251Z,16.23
2023-01-17T07:38:44.181Z,10.27
2023-01-17T07:41:12.347Z,15.32
2023-01-17T07:43:41.671Z,13.52
2023-01-17T07:46:09.885Z,14.07
2023-01-17T07:48:38.130Z,12.43
2023-01-17T07:51:08.176Z,11.65
2023-01-17T07:53:37.149Z,13.25
2023-01-17T07:56:07.668Z,12.80
2023-01-17T07:58:36.436Z,11.63
2023-01-17T08:01:06.294Z,12.70
2023-01-17T08:03:39.780Z,8.88
2023-01-17T08:06:18.253Z,10.65
2023-01-17T08:08:46.534Z,9.68
2023-01-17T08:11:15.141Z,14.90
2023-01-17T08:13:43.430Z,11.90
2023-01-17T08:16:12.070Z,13.57
2023-01-17T08:18:40.694Z,11.27
2023-01-17T08:21:16.728Z,13.15
2023-01-17T08:23:47.972Z,13.15
2023-01-17T08:26:21.356Z,17.60
2023-01-17T08:28:50.736Z,12.68
2023-01-17T08:31:19.885Z,15.30
2023-01-17T08:33:48.184Z,10.68
2023-01-17T08:36:18.119Z,12.23
2023-01-17T08:38:46.386Z,14.00
2023-01-17T08:41:14.796Z,14.63
2023-01-17T08:43:43.001Z,8.88
2023-01-17T08:46:11.159Z,12.85
2023-01-17T08:48:39.327Z,12.43
2023-01-17T08:51:07.746Z,13.30
2023-01-17T08:53:37.377Z,10.90
2023-01-17T08:56:06.903Z,10.77
2023-01-17T08:58:35.897Z,12.73
2023-01-17T09:01:05.368Z,10.35
2023-01-17T09:03:34.931Z,9.88
2023-01-17T09:06:05.266Z,7.90
2023-01-17T09:08:34.502Z,8.33
2023-01-17T09:11:06.719Z,8.52
2023-01-17T09:13:35.012Z,12.23
2023-01-17T09:16:04.434Z,9.15
2023-01-17T09:18:33.919Z,7.78
2023-01-17T09:21:11.344Z,11.77
2023-01-17T09:23:39.746Z,8.30
2023-01-17T09:26:15.494Z,10.17
2023-01-17T09:28:43.695Z,12.20
2023-01-17T09:31:11.950Z,10.30
2023-01-17T09:33:41.656Z,11.98
2023-01-17T09:36:10.414Z,12.80
2023-01-17T09:38:40.076Z,9.38
2023-01-17T09:41:23.001Z,11.87
2023-01-17T09:43:56.651Z,11.68
2023-01-17T09:46:29.118Z,11.50
2023-01-17T09:49:04.358Z,11.30
2023-01-17T09:51:32.907Z,10.45
2023-01-17T09:54:02.477Z,10.02
2023-01-17T09:56:36.414Z,11.40
2023-01-17T09:59:20.949Z,13.23
2023-01-17T10:01:58.677Z,10.60
2023-01-17T10:04:44.706Z,11.10
2023-01-17T10:07:25.813Z,13.20
2023-01-17T10:10:11.214Z,12.05
2023-01-17T10:12:49.139Z,13.40
2023-01-17T10:15:46.407Z,11.97
2023-01-17T10:18:32.612Z,12.32
2023-01-17T10:21:05.752Z,11.05
2023-01-17T10:23:46.378Z,14.27
2023-01-17T10:26:19.568Z,14.98
2023-01-17T10:28:51.259Z,13.45
2023-01-17T10:31:24.875Z,12.57
2023-01-17T10:33:54.981Z,12.05
2023-01-17T10:36:25.839Z,11.88
2023-01-17T10:38:56.831Z,11.30
2023-01-17T10:41:30.264Z,13.93
2023-01-17T10:44:13.208Z,14.70
2023-01-17T10:46:46.250Z,10.85
2023-01-17T10:49:18.367Z,13.15
2023-01-17T10:52:13.479Z,12.90
2023-01-17T10:54:54.805Z,15.38
2023-01-17T10:57:25.078Z,12.65
2023-01-17T10:59:59.308Z,11.48
2023-01-17T11:02:31.284Z,12.38
2023-01-17T11:05:05.649Z,14.93
2023-01-17T11:07:33.999Z,12.73
2023-01-17T11:10:02.233Z,15.80
2023-01-17T11:12:33.929Z,10.35
2023-01-17T11:15:07.523Z,11.82
2023-01-17T11:17:37.991Z,14.85
2023-01-17T11:20:23.552Z,14.50
2023-01-17T11:23:05.849Z,17.80
2023-01-17T11:25:35.228Z,12.15
2023-01-17T11:28:07.315Z,11.77
2023-01-17T11:30:38.032Z,14.15
2023-01-17T11:33:22.143Z,10.77
2023-01-17T11:35:50.471Z,14.70
2023-01-17T11:38:21.385Z,17.35
2023-01-17T11:40:50.994Z,18.77
2023-01-17T11:43:23.038Z,10.48
2023-01-17T11:46:14.502Z,9.37
2023-01-17T11:48:43.000Z,11.88
2023-01-17T11:51:22.297Z,9.52
2023-01-17T11:53:50.837Z,17.02
2023-01-17T11:56:23.530Z,10.68
2023-01-17T11:58:52.552Z,13.30
2023-01-17T12:01:34.066Z,15.73
2023-01-17T12:04:23.076Z,10.98
2023-01-17T12:07:04.813Z,12.13
2023-01-17T12:09:40.035Z,9.32
2023-01-17T12:12:35.427Z,11.32
2023-01-17T12:15:18.475Z,12.43
2023-01-17T12:18:11.930Z,19.67
2023-01-17T12:20:47.004Z,12.32
2023-01-17T12:23:40.598Z,9.38
2023-01-17T12:26:23.921Z,13.50
2023-01-17T12:29:34.328Z,10.45
2023-01-17T12:32:24.834Z,14.38
2023-01-17T12:34:58.389Z,11.13
2023-01-17T12:37:34.571Z,13.32
2023-01-17T12:40:09.307Z,13.60
2023-01-17T12:42:43.337Z,14.00
2023-01-17T12:45:16.194Z,13.95
2023-01-17T12:47:47.691Z,10.77
2023-01-17T12:50:26.001Z,13.63
2023-01-17T12:53:00.736Z,9.68
2023-01-17T12:55:38.491Z,9.40
2023-01-17T12:58:13.818Z,11.60
2023-01-17T13:00:52.451Z,6.90
2023-01-17T13:03:28.106Z,7.10
2023-01-17T13:05:58.993Z,8.60
2023-01-17T13:08:35.436Z,8.15
2023-01-17T13:11:08.225Z,9.97
2023-01-17T13:13:36.773Z,8.13
2023-01-17T13:16:11.688Z,6.88
2023-01-17T13:18:43.992Z,7.60
2023-01-17T13:21:42.124Z,8.50
2023-01-17T13:24:22.697Z,7.03
2023-01-17T13:27:28.003Z,9.60
2023-01-17T13:30:08.670Z,6.95
2023-01-17T13:32:55.644Z,6.90
2023-01-17T13:35:39.948Z,9.27
2023-01-17T13:38:25.332Z,6.70
2023-01-17T13:40:58.433Z,7.63
2023-01-17T13:43:31.414Z,5.95
2023-01-17T13:46:03.331Z,7.43
2023-01-17T13:48:34.243Z,6.20
2023-01-17T13:51:04.338Z,7.07
2023-01-17T13:54:01.041Z,7.32
2023-01-17T13:56:36.213Z,8.60
2023-01-17T13:59:39.299Z,4.17
2023-01-17T14:02:36.191Z,7.65
2023-01-17T14:05:11.794Z,10.02
2023-01-17T14:07:47.492Z,6.30
2023-01-17T14:10:31.521Z,6.07
2023-01-17T14:13:00.476Z,7.03
2023-01-17T14:15:32.750Z,5.43
2023-01-17T14:18:03.101Z,3.70
2023-01-17T14:20:51.682Z,5.72
2023-01-17T14:23:41.608Z,6.50
2023-01-17T14:26:37.721Z,4.10
2023-01-17T14:29:39.440Z,7.00
2023-01-17T14:32:12.366Z,7.53
2023-01-17T14:34:41.031Z,6.57
2023-01-17T14:37:25.506Z,8.30
2023-01-17T14:39:54.207Z,6.83
2023-01-17T14:42:27.270Z,7.43
2023-01-17T14:45:02.955Z,5.60
2023-01-17T14:47:36.794Z,5.40
2023-01-17T14:50:14.271Z,7.70
2023-01-17T14:52:42.755Z,5.80
2023-01-17T14:55:17.172Z,5.90
2023-01-17T14:57:56.029Z,7.03
2023-01-17T15:00:29.089Z,11.13
2023-01-17T15:03:00.100Z,10.23
2023-01-17T15:05:31.302Z,5.13
2023-01-17T15:08:00.223Z,4.93
2023-01-17T15:10:32.439Z,4.95
2023-01-17T15:13:10.091Z,10.07
2023-01-17T15:15:40.711Z,4.50
2023-01-17T15:18:19.363Z,7.80
2023-01-17T15:20:54.591Z,4.80
2023-01-17T15:23:24.456Z,6.70
2023-01-17T15:25:54.617Z,5.55
2023-01-17T15:28:24.800Z,4.20
2023-01-17T15:31:14.675Z,8.10
2023-01-17T15:33:46.649Z,5.20
2023-01-17T15:36:27.029Z,9.63
2023-01-17T15:39:00.172Z,7.00
2023-01-17T15:41:32.143Z,5.90
2023-01-17T15:44:03.016Z,10.83
2023-01-17T15:46:34.060Z,9.13
2023-01-17T15:49:17.621Z,9.93
2023-01-17T15:51:52.290Z,4.97
2023-01-17T15:54:50.605Z,5.40
2023-01-17T15:57:24.014Z,4.85
2023-01-17T16:00:07.045Z,4.53
2023-01-17T16:02:43.572Z,5.55
2023-01-17T16:05:38.653Z,6.75
2023-01-17T16:08:28.841Z,7.20
2023-01-17T16:11:02.036Z,8.32
2023-01-17T16:13:32.105Z,11.02
2023-01-17T16:16:20.541Z,9.88
2023-01-17T16:18:49.886Z,6.40
2023-01-17T16:21:24.993Z,6.57
2023-01-17T16:23:54.036Z,12.15
2023-01-17T16:26:22.507Z,8.45
2023-01-17T16:28:51.036Z,8.45
2023-01-17T16:31:20.867Z,8.48
2023-01-17T16:33:50.941Z,8.90
2023-01-17T16:36:20.895Z,13.30
2023-01-17T16:38:51.214Z,11.80
2023-01-17T16:41:19.788Z,8.82
2023-01-17T16:43:57.345Z,9.77
2023-01-17T16:46:27.331Z,15.97
2023-01-17T16:48:55.761Z,21.40
2023-01-17T16:51:24.024Z,16.73
2023-01-17T16:53:52.302Z,22.10
2023-01-17T16:56:21.344Z,15.32
2023-01-17T16:58:49.541Z,18.80
2023-01-17T17:01:21.290Z,16.90
2023-01-17T17:03:51.289Z,16.55
2023-01-17T17:06:19.843Z,19.08
2023-01-17T17:08:48.612Z,17.17
2023-01-17T17:11:18.977Z,17.90
2023-01-17T17:13:49.009Z,15.23
2023-01-17T17:16:19.503Z,16.67
2023-01-17T17:18:55.027Z,14.80
2023-01-17T17:21:23.671Z,13.52
2023-01-17T17:23:56.707Z,12.65
2023-01-17T17:26:26.828Z,17.60
2023-01-17T17:28:55.625Z,21.60
2023-01-17T17:31:24.264Z,16.00
2023-01-17T17:33:54.124Z,19.70
2023-01-17T17:36:23.269Z,27.10
2023-01-17T17:38:54.533Z,17.97
2023-01-17T17:41:24.530Z,18.95
2023-01-17T17:43:53.210Z,22.08
2023-01-17T17:46:22.778Z,22.17
2023-01-17T17:48:51.506Z,27.67
2023-01-17T17:51:26.341Z,18.90
2023-01-17T17:53:55.287Z,20.60
2023-01-17T17:56:24.488Z,21.45
2023-01-17T17:58:52.745Z,21.83
2023-01-17T18:01:22.856Z,25.00
2023-01-17T18:03:51.679Z,20.73
2023-01-17T18:06:20.670Z,20.73
2023-01-17T18:08:52.001Z,23.95
2023-01-17T18:11:26.128Z,24.73
2023-01-17T18:13:56.249Z,20.08
2023-01-17T18:16:27.274Z,17.90
2023-01-17T18:18:57.407Z,23.15
2023-01-17T18:21:28.398Z,22.83
2023-01-17T18:23:59.866Z,20.50
2023-01-17T18:26:30.564Z,24.83
2023-01-17T18:29:00.358Z,23.20
2023-01-17T18:31:30.290Z,20.50
2023-01-17T18:34:00.131Z,21.55
2023-01-17T18:36:29.246Z,18.92
2023-01-17T18:38:59.352Z,22.95
2023-01-17T18:41:29.172Z,32.50
2023-01-17T18:43:58.115Z,54.03
2023-01-17T18:46:27.475Z,49.08
2023-01-17T18:48:58.112Z,51.03
2023-01-17T18:51:26.978Z,47.15
2023-01-17T18:53:55.221Z,46.90
2023-01-17T18:56:24.812Z,46.73
2023-01-17T18:58:53.246Z,41.50
2023-01-17T19:01:23.405Z,38.65
2023-01-17T19:03:53.884Z,45.88
2023-01-17T19:06:24.770Z,41.83
2023-01-17T19:08:53.492Z,41.57
2023-01-17T19:11:24.365Z,35.97
2023-01-17T19:13:53.520Z,33.50
2023-01-17T19:16:25.467Z,34.83
2023-01-17T19:18:54.114Z,34.30
2023-01-17T19:21:23.912Z,23.42
2023-01-17T19:23:52.406Z,26.10
2023-01-17T19:26:22.867Z,25.85
2023-01-17T19:28:52.818Z,27.13
2023-01-17T19:31:23.252Z,22.23
2023-01-17T19:33:53.671Z,18.23
2023-01-17T19:36:24.098Z,19.02
2023-01-17T19:39:03.901Z,23.45
2023-01-17T19:41:33.946Z,23.77
2023-01-17T19:44:05.475Z,26.52
2023-01-17T19:46:34.311Z,23.17
2023-01-17T19:49:04.370Z,24.83
2023-01-17T19:51:32.619Z,23.27
2023-01-17T19:54:02.985Z,23.88
2023-01-17T19:56:31.636Z,29.42
2023-01-17T19:59:01.485Z,30.17
2023-01-17T20:01:33.467Z,37.83
2023-01-17T20:04:04.128Z,36.95
2023-01-17T20:06:34.528Z,38.65
2023-01-17T20:09:04.145Z,44.70
2023-01-17T20:11:32.484Z,38.53
2023-01-17T20:14:01.123Z,42.53
2023-01-17T20:16:35.889Z,37.08
2023-01-17T20:19:04.087Z,66.23
2023-01-17T20:21:33.137Z,48.00
2023-01-17T20:24:04.411Z,52.27
2023-01-17T20:26:35.872Z,51.47
2023-01-17T20:29:07.324Z,73.80
2023-01-17T20:31:38.513Z,76.72
2023-01-17T20:34:08.105Z,64.20
2023-01-17T20:36:37.370Z,62.80
2023-01-17T20:39:06.731Z,54.85
2023-01-17T20:41:36.750Z,56.90
2023-01-17T20:44:06.949Z,54.67
2023-01-17T20:46:41.051Z,57.10
2023-01-17T20:49:14.769Z,49.22
2023-01-17T20:51:44.387Z,44.40
2023-01-17T20:54:14.944Z,43.70
2023-01-17T20:56:43.662Z,33.85
2023-01-17T20:59:14.522Z,32.08
2023-01-17T21:01:44.940Z,36.75
2023-01-17T21:04:14.728Z,28.52
2023-01-17T21:06:44.154Z,32.28
2023-01-17T21:09:13.983Z,35.50
2023-01-17T21:11:42.295Z,30.60
2023-01-17T21:14:10.840Z,33.38
2023-01-17T21:16:39.360Z,28.85
2023-01-17T21:19:12.038Z,29.35
2023-01-17T21:21:40.437Z,26.58
2023-01-17T21:24:09.245Z,27.43
2023-01-17T21:26:38.927Z,26.13
2023-01-17T21:29:07.340Z,26.98
2023-01-17T21:31:36.741Z,26.90
2023-01-17T21:34:09.282Z,22.00
2023-01-17T21:36:38.903Z,24.30
2023-01-17T21:39:09.249Z,22.17
2023-01-17T21:41:39.713Z,24.95
2023-01-17T21:44:10.077Z,19.55
2023-01-17T21:46:40.107Z,19.52
2023-01-17T21:49:12.011Z,21.20
2023-01-17T21:51:56.910Z,20.73
2023-01-17T21:54:40.822Z,30.23
2023-01-17T21:57:27.234Z,26.40
2023-01-17T21:59:55.490Z,26.50
2023-01-17T22:02:24.080Z,28.43
2023-01-17T22:04:56.262Z,33.20
2023-01-17T22:07:27.090Z,29.83
2023-01-17T22:09:56.757Z,30.25
2023-01-17T22:12:25.810Z,28.00
2023-01-17T22:14:54.453Z,25.33
2023-01-17T22:17:22.872Z,29.35
2023-01-17T22:19:51.184Z,29.60
2023-01-17T22:22:21.680Z,23.77
2023-01-17T22:24:50.410Z,21.50
2023-01-17T22:27:19.964Z,28.88
2023-01-17T22:29:48.158Z,28.08
2023-01-17T22:32:16.405Z,22.42
2023-01-17T22:34:44.694Z,21.98
2023-01-17T22:37:13.141Z,23.15
2023-01-17T22:39:42.861Z,20.33
2023-01-17T22:42:11.675Z,23.83
2023-01-17T22:44:39.796Z,20.53
2023-01-17T22:47:08.057Z,17.73
2023-01-17T22:49:36.272Z,19.58
2023-01-17T22:52:04.699Z,22.05
2023-01-17T22:54:33.073Z,18.50
2023-01-17T22:57:06.409Z,18.00
2023-01-17T22:59:35.365Z,16.57
2023-01-17T23:02:05.701Z,16.45
2023-01-17T23:04:33.955Z,19.20
2023-01-17T23:07:02.230Z,19.90
2023-01-17T23:09:30.597Z,22.80
2023-01-17T23:11:58.842Z,18.65
2023-01-17T23:14:30.627Z,20.50
2023-01-17T23:17:29.852Z,18.20
2023-01-17T23:19:58.323Z,17.05
2023-01-17T23:22:29.027Z,18.27
2023-01-17T23:24:58.854Z,23.40
2023-01-17T23:27:48.170Z,19.08
2023-01-17T23:30:20.135Z,19.60
2023-01-17T23:32:50.094Z,24.20
2023-01-17T23:35:20.480Z,22.27
2023-01-17T23:38:06.648Z,16.13
2023-01-17T23:40:37.125Z,19.13
2023-01-17T23:43:23.287Z,19.77
2023-01-17T23:45:54.354Z,17.40
2023-01-17T23:48:24.718Z,18.33
2023-01-17T23:50:53.226Z,16.83
2023-01-17T23:53:23.019Z,14.68
2023-01-17T23:55:53.407Z,14.27
2023-01-17T23:58:23.549Z,14.60
